Time;durP1;ratioP1;P1;durP2;ratioP2;P2;SDS_P1;SDS_P2;PMS_P1;PMS_P2;Temp;Humidity;BMP_temperature;BMP_pressure;BME280_temperature;BME280_humidity;BME280_pressure;Samples;Min_cycle;Max_cycle;Signal;HPM_P1;HPM_P2
2022/08/25 00:01:22;;;;;;;53.75;24.23;;;17.20;99.90;;;;;;5074998;28;20029;-56
2022/08/25 00:03:48;;;;;;;51.35;24.10;;;17.30;99.90;;;;;;5075014;28;20043;-56
2022/08/25 00:06:15;;;;;;;52.90;23.48;;;17.20;99.90;;;;;;5074968;28;20038;-56
2022/08/25 00:08:42;;;;;;;48.03;23.85;;;17.20;99.90;;;;;;5075112;28;20094;-56
2022/08/25 00:11:21;;;;;;;54.42;24.55;;;17.10;99.90;;;;;;5057148;28;20036;-56
2022/08/25 00:13:52;;;;;;;78.03;28.10;;;17.00;99.90;;;;;;5074983;28;20050;-56
2022/08/25 00:16:19;;;;;;;81.55;36.20;;;17.00;99.90;;;;;;5074730;28;20469;-56
2022/08/25 00:18:48;;;;;;;65.47;30.42;;;17.00;99.90;;;;;;5074432;28;20484;-56
2022/08/25 00:21:15;;;;;;;66.80;29.88;;;17.00;99.90;;;;;;5074762;28;20466;-56
2022/08/25 00:23:42;;;;;;;55.58;27.65;;;17.00;99.90;;;;;;5074766;28;20033;-56
2022/08/25 00:26:09;;;;;;;58.33;26.65;;;16.90;99.90;;;;;;5074906;28;20386;-56
2022/08/25 00:28:36;;;;;;;80.80;27.45;;;17.00;99.90;;;;;;5074304;28;20032;-56
2022/08/25 00:31:03;;;;;;;62.80;25.65;;;17.10;99.90;;;;;;5074740;28;20033;-56
2022/08/25 00:33:32;;;;;;;49.15;25.00;;;17.20;99.90;;;;;;5074612;28;20098;-56
2022/08/25 00:35:59;;;;;;;50.10;24.83;;;17.20;99.90;;;;;;5074337;28;20105;-56
2022/08/25 00:38:26;;;;;;;56.20;25.58;;;17.20;99.90;;;;;;5074553;28;20032;-56
2022/08/25 00:41:05;;;;;;;120.18;29.23;;;17.20;99.90;;;;;;5074668;28;20024;-56
2022/08/25 00:43:41;;;;;;;129.30;30.80;;;17.20;99.90;;;;;;5074058;28;20029;-56
2022/08/25 00:46:08;;;;;;;93.60;30.02;;;17.10;99.90;;;;;;5074372;28;20485;-56
2022/08/25 00:48:35;;;;;;;70.85;26.92;;;17.10;99.90;;;;;;5074357;28;20476;-56
2022/08/25 00:51:03;;;;;;;50.67;25.60;;;17.10;99.90;;;;;;5074307;28;20060;-56
2022/08/25 00:53:30;;;;;;;61.92;26.50;;;17.20;99.90;;;;;;5074276;28;20036;-56
2022/08/25 00:55:57;;;;;;;62.42;26.83;;;17.10;99.90;;;;;;5073980;28;20054;-56
2022/08/25 00:58:26;;;;;;;52.40;25.10;;;17.20;99.90;;;;;;5074231;28;20020;-56
2022/08/25 01:00:56;;;;;;;44.10;23.80;;;17.10;99.90;;;;;;5074177;28;20025;-56
2022/08/25 01:03:24;;;;;;;50.85;24.60;;;17.20;99.90;;;;;;5073906;28;20056;-56
2022/08/25 01:05:52;;;;;;;56.65;25.80;;;17.30;99.90;;;;;;5073939;28;20047;-56
2022/08/25 01:08:19;;;;;;;55.72;26.15;;;17.40;99.90;;;;;;5073653;28;20451;-56
2022/08/25 01:10:46;;;;;;;58.20;26.77;;;17.40;99.90;;;;;;5073725;28;20055;-56
2022/08/25 01:13:53;;;;;;;47.40;23.40;;;17.40;99.90;;;;;;5073954;28;20397;-56
2022/08/25 01:16:20;;;;;;;64.43;27.35;;;17.50;99.90;;;;;;5073421;28;20044;-56
2022/08/25 01:18:50;;;;;;;78.70;29.65;;;17.50;99.90;;;;;;5073505;28;20091;-56
2022/08/25 01:21:18;;;;;;;70.43;28.83;;;17.40;99.90;;;;;;5073849;28;20025;-56
2022/08/25 01:23:45;;;;;;;61.42;26.88;;;17.50;99.90;;;;;;5073665;28;20711;-56
2022/08/25 01:26:21;;;;;;;56.65;25.65;;;17.40;99.90;;;;;;5073331;28;20037;-56
2022/08/25 01:31:35;;;;;;;57.15;23.15;;;17.50;99.90;;;;;;5072734;28;20056;-56
2022/08/25 01:34:01;;;;;;;50.25;20.52;;;17.50;99.90;;;;;;5073382;28;20024;-56
2022/08/25 01:36:28;;;;;;;44.70;20.05;;;17.40;99.90;;;;;;5073780;28;20032;-56
2022/08/25 01:38:55;;;;;;;43.47;20.52;;;17.50;99.90;;;;;;5073593;28;20024;-56
2022/08/25 01:41:26;;;;;;;47.78;20.92;;;17.50;99.90;;;;;;5073328;28;20355;-56
2022/08/25 01:43:52;;;;;;;54.60;20.73;;;17.50;99.90;;;;;;5073005;28;20033;-56
2022/08/25 01:46:18;;;;;;;50.15;21.08;;;17.50;99.90;;;;;;5072990;28;20555;-56
2022/08/25 01:48:44;;;;;;;48.92;20.65;;;17.50;99.90;;;;;;5073304;28;20068;-56
2022/08/25 01:51:10;;;;;;;43.17;21.05;;;17.40;99.90;;;;;;5073351;28;20035;-56
2022/08/25 01:53:36;;;;;;;46.55;20.17;;;17.50;99.90;;;;;;5072889;28;20033;-56
2022/08/25 01:56:14;;;;;;;43.60;20.92;;;17.50;99.90;;;;;;5073194;28;20043;-56
2022/08/25 01:58:46;;;;;;;47.47;20.67;;;17.50;99.90;;;;;;5073183;28;20052;-56
2022/08/25 02:01:17;;;;;;;52.80;22.60;;;17.40;99.90;;;;;;5072938;28;20500;-56
2022/08/25 02:03:46;;;;;;;43.88;21.45;;;17.40;99.90;;;;;;5072709;28;20032;-56
2022/08/25 02:06:14;;;;;;;50.25;23.88;;;17.50;99.90;;;;;;5073281;28;20090;-56
2022/08/25 02:08:41;;;;;;;52.88;25.70;;;17.40;99.90;;;;;;5072569;28;20078;-56
2022/08/25 02:11:11;;;;;;;49.13;23.15;;;17.40;99.90;;;;;;5072967;28;20036;-56
2022/08/25 02:13:39;;;;;;;47.70;23.57;;;17.40;99.90;;;;;;5073065;28;20059;-56
2022/08/25 02:16:06;;;;;;;45.15;21.60;;;17.40;99.90;;;;;;5072531;28;20269;-56
2022/08/25 02:18:32;;;;;;;43.65;23.40;;;17.40;99.90;;;;;;5072695;28;20036;-56
2022/08/25 02:20:58;;;;;;;48.65;24.00;;;17.20;99.90;;;;;;5073247;28;20025;-56
2022/08/25 02:23:25;;;;;;;45.20;23.88;;;17.10;99.90;;;;;;5072551;28;20242;-56
2022/08/25 02:25:51;;;;;;;45.45;23.92;;;17.20;99.90;;;;;;5072890;28;20358;-56
2022/08/25 02:28:17;;;;;;;48.70;24.85;;;17.10;99.90;;;;;;5072502;28;20115;-56
2022/08/25 02:30:44;;;;;;;46.05;24.75;;;17.10;99.90;;;;;;5072820;28;20030;-56
2022/08/25 02:33:10;;;;;;;58.55;24.17;;;17.10;99.90;;;;;;5072614;28;20111;-56
2022/08/25 02:35:37;;;;;;;47.83;23.60;;;16.90;99.90;;;;;;5072762;28;20028;-56
2022/08/25 02:38:03;;;;;;;45.10;24.23;;;16.90;99.90;;;;;;5072605;28;20034;-56
2022/08/25 02:40:29;;;;;;;53.85;22.77;;;16.90;99.90;;;;;;5072753;28;20377;-56
2022/08/25 02:42:56;;;;;;;54.80;23.92;;;16.90;99.90;;;;;;5075873;28;20024;-56
2022/08/25 02:45:22;;;;;;;54.58;23.95;;;16.90;99.90;;;;;;5076608;28;20040;-56
2022/08/25 02:47:48;;;;;;;48.53;23.25;;;16.90;99.90;;;;;;5076776;28;20044;-56
2022/08/25 02:50:14;;;;;;;67.82;23.83;;;17.00;99.90;;;;;;5077033;28;20032;-56
2022/08/25 02:52:40;;;;;;;58.60;23.88;;;16.90;99.90;;;;;;5076285;28;20031;-56
2022/08/25 02:55:09;;;;;;;57.30;23.23;;;17.00;99.90;;;;;;5076655;28;20024;-56
2022/08/25 02:57:35;;;;;;;50.00;23.20;;;16.90;99.90;;;;;;5076314;28;20375;-56
2022/08/25 03:00:01;;;;;;;93.07;23.80;;;16.90;99.90;;;;;;5076515;28;20253;-56
2022/08/25 03:02:27;;;;;;;60.90;24.25;;;16.80;99.90;;;;;;5077473;28;20028;-56
2022/08/25 03:04:53;;;;;;;139.35;25.25;;;16.80;99.90;;;;;;5076015;28;20100;-56
2022/08/25 03:07:20;;;;;;;67.13;25.50;;;16.80;99.90;;;;;;5076167;28;20024;-56
2022/08/25 03:09:47;;;;;;;82.05;23.48;;;16.80;99.90;;;;;;5076312;28;20378;-56
2022/08/25 03:12:13;;;;;;;49.97;23.48;;;16.80;99.90;;;;;;5076447;28;20040;-56
2022/08/25 03:14:39;;;;;;;76.32;21.17;;;16.80;99.90;;;;;;5076278;28;20077;-56
2022/08/25 03:17:06;;;;;;;67.15;21.65;;;16.80;99.90;;;;;;5076057;28;20021;-56
2022/08/25 03:19:33;;;;;;;91.25;23.27;;;16.80;99.90;;;;;;5075819;28;20016;-56
2022/08/25 03:21:59;;;;;;;77.57;24.23;;;16.70;99.90;;;;;;5076012;28;20024;-56
2022/08/25 03:24:26;;;;;;;60.00;24.05;;;16.70;99.90;;;;;;5076106;28;20028;-56
2022/08/25 03:26:52;;;;;;;64.30;25.77;;;16.70;99.90;;;;;;5075626;28;20028;-56
2022/08/25 03:29:20;;;;;;;67.63;24.67;;;16.80;99.90;;;;;;5075735;28;20031;-56
2022/08/25 03:31:46;;;;;;;60.80;23.67;;;16.90;99.90;;;;;;5075674;28;20378;-56
2022/08/25 03:34:15;;;;;;;57.88;23.50;;;16.90;99.90;;;;;;5057344;28;20039;-56
2022/08/25 03:36:43;;;;;;;70.20;24.10;;;16.90;99.90;;;;;;5076126;28;20063;-56
2022/08/25 03:39:09;;;;;;;59.75;24.33;;;16.90;99.90;;;;;;5075848;28;20342;-56
2022/08/25 03:41:36;;;;;;;54.35;24.17;;;16.80;99.90;;;;;;5075245;28;20062;-56
2022/08/25 03:44:03;;;;;;;60.65;25.55;;;17.00;99.90;;;;;;5075711;28;20425;-56
2022/08/25 03:46:39;;;;;;;67.63;27.40;;;17.00;99.90;;;;;;5075608;28;20028;-56
2022/08/25 03:49:08;;;;;;;59.28;25.58;;;17.10;99.90;;;;;;5075286;28;20584;-56
2022/08/25 03:51:40;;;;;;;70.85;26.17;;;17.20;99.90;;;;;;5075544;28;20050;-56
2022/08/25 03:54:08;;;;;;;55.47;23.63;;;17.20;99.90;;;;;;5074580;28;20033;-56
2022/08/25 03:56:34;;;;;;;54.00;24.73;;;17.20;99.90;;;;;;5075097;28;20103;-56
2022/08/25 03:59:00;;;;;;;59.38;25.48;;;17.20;99.90;;;;;;5075593;28;20024;-56
2022/08/25 04:01:27;;;;;;;57.97;25.65;;;17.20;99.90;;;;;;5075242;28;20048;-56
2022/08/25 04:03:53;;;;;;;64.20;27.40;;;17.20;99.90;;;;;;5075113;28;20328;-56
2022/08/25 04:06:20;;;;;;;58.08;26.13;;;17.10;99.90;;;;;;5057348;28;20053;-56
2022/08/25 04:08:47;;;;;;;62.28;25.05;;;17.20;99.90;;;;;;5057243;28;20324;-56
2022/08/25 04:11:17;;;;;;;54.53;24.15;;;17.10;99.90;;;;;;5075198;28;20055;-56
2022/08/25 04:13:45;;;;;;;48.20;23.25;;;17.10;99.90;;;;;;5075006;28;20489;-56
2022/08/25 04:16:18;;;;;;;53.95;23.27;;;17.20;99.90;;;;;;5074727;28;20081;-56
2022/08/25 04:18:46;;;;;;;57.17;25.15;;;17.10;99.90;;;;;;5074882;28;20028;-56
2022/08/25 04:21:12;;;;;;;53.13;24.13;;;17.20;99.90;;;;;;5074785;28;20378;-56
2022/08/25 04:23:41;;;;;;;52.65;24.50;;;17.20;99.90;;;;;;5074603;28;20516;-56
2022/08/25 04:26:11;;;;;;;56.03;25.60;;;17.20;99.90;;;;;;5074967;28;20036;-56
2022/08/25 04:28:40;;;;;;;54.53;26.20;;;17.20;99.90;;;;;;5074550;28;20409;-56
2022/08/25 04:31:08;;;;;;;52.75;24.10;;;17.20;99.90;;;;;;5074714;28;20036;-56
2022/08/25 04:33:36;;;;;;;65.85;28.17;;;17.20;99.90;;;;;;5074683;28;20466;-56
2022/08/25 04:36:04;;;;;;;61.22;26.50;;;17.30;99.90;;;;;;5074941;28;20028;-56
2022/08/25 04:38:31;;;;;;;69.95;31.48;;;17.40;99.90;;;;;;5074481;28;20488;-56
2022/08/25 04:41:02;;;;;;;62.15;29.40;;;17.50;99.90;;;;;;5074133;28;20060;-56
2022/08/25 04:43:32;;;;;;;51.22;24.33;;;17.40;99.90;;;;;;5074437;28;20036;-56
2022/08/25 04:45:58;;;;;;;59.70;26.17;;;17.40;99.90;;;;;;5056283;28;20062;-56
2022/08/25 04:48:25;;;;;;;53.08;24.02;;;17.30;99.90;;;;;;5074273;28;20291;-56
2022/08/25 04:50:51;;;;;;;51.05;24.45;;;17.40;99.90;;;;;;5074816;28;20113;-56
2022/08/25 04:53:18;;;;;;;50.88;24.08;;;17.40;99.90;;;;;;5074122;28;20443;-56
2022/08/25 04:55:46;;;;;;;55.65;24.23;;;17.40;99.90;;;;;;5074232;28;20032;-56
2022/08/25 04:58:14;;;;;;;50.85;23.58;;;17.40;99.90;;;;;;5074150;28;20378;-56
2022/08/25 05:00:41;;;;;;;46.03;21.95;;;17.40;99.90;;;;;;5074054;28;20474;-56
2022/08/25 05:03:08;;;;;;;43.40;23.80;;;17.40;99.90;;;;;;5074084;28;20068;-56
2022/08/25 05:05:37;;;;;;;46.92;23.73;;;17.50;99.90;;;;;;5072708;28;20032;-56
2022/08/25 05:08:04;;;;;;;46.85;24.50;;;17.50;99.90;;;;;;5073808;28;20360;-56
2022/08/25 05:10:30;;;;;;;48.17;23.73;;;17.50;99.90;;;;;;5073906;28;20074;-56
2022/08/25 05:12:56;;;;;;;43.72;24.02;;;17.50;99.90;;;;;;5073551;28;20032;-56
2022/08/25 05:18:06;;;;;;;63.97;28.00;;;17.60;99.90;;;;;;5059746;28;20029;-56
2022/08/25 05:20:36;;;;;;;69.65;29.20;;;17.60;99.90;;;;;;5047158;28;20029;-56
2022/08/25 05:23:03;;;;;;;61.38;28.77;;;17.60;99.90;;;;;;5031028;28;20157;-56
2022/08/25 05:25:30;;;;;;;59.67;27.27;;;17.60;99.90;;;;;;5044781;28;20093;-56
2022/08/25 05:27:56;;;;;;;58.30;26.20;;;17.70;99.90;;;;;;5052597;28;20028;-56
2022/08/25 05:30:22;;;;;;;52.22;25.67;;;17.70;99.90;;;;;;5034766;28;20545;-56
2022/08/25 05:32:48;;;;;;;60.13;27.33;;;17.70;99.90;;;;;;5031984;28;20028;-56
2022/08/25 05:35:14;;;;;;;55.65;25.08;;;17.80;99.90;;;;;;5047093;28;20098;-56
2022/08/25 05:37:41;;;;;;;56.28;27.38;;;17.60;99.90;;;;;;5046442;28;20425;-56
2022/08/25 05:40:09;;;;;;;54.30;26.60;;;17.60;99.90;;;;;;5047475;28;20050;-56
2022/08/25 05:42:35;;;;;;;48.15;24.73;;;17.70;99.90;;;;;;5043802;28;20068;-56
2022/08/25 05:45:02;;;;;;;56.92;25.35;;;17.70;99.90;;;;;;5047580;28;20114;-56
2022/08/25 05:47:28;;;;;;;57.05;27.20;;;17.70;99.90;;;;;;5048747;28;20040;-56
2022/08/25 05:49:55;;;;;;;52.78;26.70;;;17.70;99.90;;;;;;5048400;28;20494;-56
2022/08/25 05:52:21;;;;;;;53.55;27.13;;;17.80;99.90;;;;;;5050122;28;20036;-56
2022/08/25 05:54:48;;;;;;;50.95;27.30;;;17.80;99.90;;;;;;5048784;28;20450;-57
2022/08/25 05:57:14;;;;;;;53.70;25.67;;;17.90;99.90;;;;;;5038103;28;20663;-57
2022/08/25 05:59:40;;;;;;;57.72;27.67;;;18.00;99.90;;;;;;5025847;28;20036;-57
2022/08/25 06:04:51;;;;;;;57.15;27.52;;;18.20;99.90;;;;;;5044382;28;20036;-57
2022/08/25 06:07:17;;;;;;;49.35;27.05;;;18.40;99.90;;;;;;5043734;28;20086;-57
2022/08/25 06:09:44;;;;;;;55.78;29.95;;;18.50;99.90;;;;;;5029004;28;20032;-57
2022/08/25 06:12:11;;;;;;;54.53;27.75;;;18.60;99.90;;;;;;5041394;28;20028;-57
2022/08/25 06:14:37;;;;;;;60.65;26.90;;;18.80;99.90;;;;;;5048923;28;20086;-57
2022/08/25 06:17:03;;;;;;;56.30;27.65;;;19.00;99.90;;;;;;5044549;28;20021;-56
2022/08/25 06:19:31;;;;;;;55.40;27.67;;;19.10;99.90;;;;;;5045162;28;20021;-57
2022/08/25 06:22:07;;;;;;;50.63;26.80;;;19.20;99.90;;;;;;5048506;28;20026;-57
2022/08/25 06:24:33;;;;;;;49.35;25.73;;;19.20;99.90;;;;;;5039107;28;20036;-57
2022/08/25 06:27:01;;;;;;;47.50;25.42;;;19.20;99.90;;;;;;5038617;28;20048;-57
2022/08/25 06:29:27;;;;;;;44.97;26.90;;;19.30;99.90;;;;;;5039191;28;20040;-57
2022/08/25 06:31:53;;;;;;;46.85;26.45;;;19.50;99.90;;;;;;5038509;28;20352;-57
2022/08/25 06:34:20;;;;;;;52.95;30.17;;;19.70;99.90;;;;;;5030465;28;20043;-57
2022/08/25 06:36:46;;;;;;;58.95;32.53;;;19.80;99.90;;;;;;5048150;28;20029;-57
2022/08/25 06:39:15;;;;;;;44.60;27.55;;;19.90;99.90;;;;;;5044602;28;20525;-57
2022/08/25 06:41:41;;;;;;;50.00;26.45;;;19.90;99.90;;;;;;5064275;28;20524;-57
2022/08/25 06:44:11;;;;;;;57.92;29.30;;;19.90;99.90;;;;;;5050755;28;20033;-57
2022/08/25 06:46:37;;;;;;;52.27;27.47;;;20.10;99.90;;;;;;5049047;28;20043;-57
2022/08/25 06:49:04;;;;;;;57.80;27.95;;;20.30;99.90;;;;;;5049082;28;20366;-57
2022/08/25 06:51:30;;;;;;;50.22;28.10;;;20.50;99.90;;;;;;5048888;28;20110;-57
2022/08/25 06:53:56;;;;;;;43.45;26.35;;;20.60;99.90;;;;;;5041716;28;20386;-57
2022/08/25 06:56:22;;;;;;;47.92;27.52;;;20.60;99.90;;;;;;5039368;28;20040;-57
2022/08/25 06:58:48;;;;;;;50.72;27.23;;;20.80;99.90;;;;;;5031187;28;20348;-57
2022/08/25 07:01:24;;;;;;;54.33;27.13;;;21.00;99.90;;;;;;5039483;28;20024;-57
2022/08/25 07:03:51;;;;;;;46.45;25.92;;;20.80;99.90;;;;;;5038121;28;20029;-57
2022/08/25 07:06:17;;;;;;;49.15;26.38;;;20.70;99.90;;;;;;5048615;28;20032;-57
2022/08/25 07:08:44;;;;;;;51.47;28.10;;;20.80;99.90;;;;;;5059986;28;20792;-57
2022/08/25 07:11:11;;;;;;;44.78;26.52;;;20.70;99.90;;;;;;5064249;28;20020;-57
2022/08/25 07:13:41;;;;;;;51.22;28.40;;;20.70;99.90;;;;;;5070783;28;20027;-57
2022/08/25 07:16:07;;;;;;;48.25;28.17;;;20.70;99.90;;;;;;5055591;28;20090;-57
2022/08/25 07:18:34;;;;;;;59.90;28.65;;;20.80;99.90;;;;;;5055356;28;20315;-57
2022/08/25 07:21:00;;;;;;;46.90;27.02;;;20.90;99.90;;;;;;5034370;28;20399;-57
2022/08/25 07:23:27;;;;;;;49.83;27.52;;;20.90;99.90;;;;;;5045566;28;20092;-57
2022/08/25 07:25:54;;;;;;;46.58;26.45;;;21.20;99.90;;;;;;5052662;28;20055;-57
2022/08/25 07:28:21;;;;;;;41.10;24.35;;;21.30;99.90;;;;;;5056861;28;20033;-58
2022/08/25 07:30:48;;;;;;;54.28;27.52;;;21.40;99.90;;;;;;5059161;28;20027;-57
2022/08/25 07:33:14;;;;;;;46.20;26.25;;;21.50;99.90;;;;;;5071042;28;20089;-57
2022/08/25 07:35:40;;;;;;;50.58;26.15;;;21.60;99.90;;;;;;5059507;28;20517;-57
2022/08/25 07:38:08;;;;;;;51.95;24.67;;;21.70;99.90;;;;;;5051280;28;20494;-57
2022/08/25 07:40:36;;;;;;;45.90;24.15;;;22.00;99.90;;;;;;5048493;28;20020;-57
2022/08/25 07:43:09;;;;;;;41.15;23.50;;;22.30;99.90;;;;;;5051039;28;20033;-57
2022/08/25 07:45:38;;;;;;;36.75;23.63;;;22.50;99.90;;;;;;5046751;28;20067;-57
2022/08/25 07:48:11;;;;;;;46.30;24.10;;;22.70;99.90;;;;;;5046529;28;20035;-57
2022/08/25 07:50:41;;;;;;;40.28;22.90;;;22.90;99.90;;;;;;5042633;28;20115;-57
2022/08/25 07:53:08;;;;;;;49.25;24.95;;;23.30;99.90;;;;;;5040304;28;20529;-57
2022/08/25 07:55:37;;;;;;;49.80;23.10;;;23.70;99.90;;;;;;5049710;28;20032;-57
2022/08/25 07:58:05;;;;;;;37.92;23.48;;;24.10;99.90;;;;;;5051169;28;20052;-57
2022/08/25 08:00:35;;;;;;;40.30;22.65;;;24.50;99.90;;;;;;5034918;28;20029;-57
2022/08/25 08:03:04;;;;;;;35.35;21.65;;;24.70;99.90;;;;;;5050566;28;20036;-57
2022/08/25 08:05:31;;;;;;;34.20;20.63;;;25.20;99.90;;;;;;5044820;28;20028;-57
2022/08/25 08:07:57;;;;;;;33.33;21.10;;;25.50;99.30;;;;;;5037195;28;20067;-58
2022/08/25 08:10:24;;;;;;;38.63;21.00;;;25.60;97.10;;;;;;5050813;28;20039;-57
2022/08/25 08:12:52;;;;;;;32.60;20.20;;;25.90;95.80;;;;;;5040787;28;20457;-58
2022/08/25 08:15:18;;;;;;;32.55;20.08;;;25.70;96.60;;;;;;5048896;28;20029;-58
2022/08/25 08:17:44;;;;;;;38.25;20.52;;;26.30;95.80;;;;;;5051184;28;20025;-58
2022/08/25 08:20:12;;;;;;;35.13;20.40;;;26.60;93.80;;;;;;5038796;28;20033;-58
2022/08/25 08:22:41;;;;;;;33.05;20.63;;;26.90;91.90;;;;;;5035474;28;20033;-58
2022/08/25 08:25:08;;;;;;;31.67;20.42;;;27.10;91.20;;;;;;5054896;28;20040;-58
2022/08/25 08:27:34;;;;;;;31.83;20.05;;;27.40;90.80;;;;;;5054874;28;20445;-58
2022/08/25 08:30:01;;;;;;;29.73;18.98;;;27.30;89.70;;;;;;5052100;28;20428;-58
2022/08/25 08:32:27;;;;;;;35.95;19.63;;;27.30;90.20;;;;;;5051161;28;20063;-58
2022/08/25 08:34:53;;;;;;;31.27;18.23;;;27.90;88.70;;;;;;5033626;28;20029;-58
2022/08/25 08:37:21;;;;;;;28.05;18.30;;;28.20;87.90;;;;;;5050908;28;20021;-58
2022/08/25 08:39:47;;;;;;;30.85;18.38;;;27.90;87.70;;;;;;5047858;28;20112;-58
2022/08/25 08:42:51;;;;;;;23.42;17.30;;;27.70;85.10;;;;;;5048377;28;20020;-58
2022/08/25 08:45:30;;;;;;;27.67;18.25;;;27.00;87.50;;;;;;5045925;28;20109;-58
2022/08/25 08:48:08;;;;;;;30.63;17.38;;;26.90;88.10;;;;;;5040075;28;20029;-58
2022/08/25 08:51:00;;;;;;;26.42;18.58;;;26.40;90.20;;;;;;5051575;28;20050;-58
2022/08/25 08:53:42;;;;;;;25.55;18.33;;;27.00;89.10;;;;;;5044369;28;20032;-58
2022/08/25 08:56:31;;;;;;;33.67;19.42;;;27.70;89.90;;;;;;5050945;28;20028;-58
2022/08/25 08:59:05;;;;;;;33.92;22.80;;;27.90;83.70;;;;;;5043079;28;20048;-58
2022/08/25 09:01:43;;;;;;;36.33;21.63;;;28.10;84.50;;;;;;5041403;28;20038;-58
2022/08/25 09:04:21;;;;;;;40.13;21.95;;;28.40;84.20;;;;;;5054732;28;20032;-59
2022/08/25 09:06:49;;;;;;;31.48;21.33;;;28.90;84.30;;;;;;5054493;28;20059;-58
2022/08/25 09:09:27;;;;;;;31.17;20.42;;;29.40;80.10;;;;;;5053966;28;20429;-59
2022/08/25 09:12:23;;;;;;;30.10;21.35;;;29.00;79.30;;;;;;5039921;28;20043;-59
2022/08/25 09:15:08;;;;;;;28.77;20.23;;;29.00;77.90;;;;;;5049788;28;20036;-59
2022/08/25 09:17:34;;;;;;;33.00;21.65;;;28.90;78.60;;;;;;5039912;28;20036;-59
2022/08/25 09:20:10;;;;;;;30.98;22.67;;;28.70;80.60;;;;;;5053552;28;20466;-59
2022/08/25 09:22:51;;;;;;;34.33;24.00;;;28.30;80.50;;;;;;5053620;28;20102;-59
2022/08/25 09:25:46;;;;;;;36.45;23.55;;;28.00;81.10;;;;;;5048125;28;20058;-59
2022/08/25 09:28:29;;;;;;;34.72;22.15;;;27.70;82.30;;;;;;5053448;28;20158;-59
2022/08/25 09:30:59;;;;;;;32.08;20.08;;;27.20;86.60;;;;;;5064132;28;20045;-59
2022/08/25 09:33:27;;;;;;;30.95;20.63;;;27.20;83.90;;;;;;5063706;28;20043;-59
2022/08/25 09:35:55;;;;;;;32.42;21.13;;;26.80;85.60;;;;;;5051084;28;20792;-59
2022/08/25 09:38:22;;;;;;;25.52;18.92;;;26.70;87.50;;;;;;5051350;28;20025;-59
2022/08/25 09:40:53;;;;;;;27.42;19.13;;;26.80;85.40;;;;;;5038727;28;20029;-59
2022/08/25 09:43:28;;;;;;;35.17;21.05;;;27.00;85.70;;;;;;5045739;28;20414;-59
2022/08/25 09:46:15;;;;;;;30.88;19.20;;;27.30;84.30;;;;;;5050299;28;20037;-59
2022/08/25 09:48:47;;;;;;;31.20;21.63;;;27.50;86.00;;;;;;5030191;28;20132;-59
2022/08/25 09:51:17;;;;;;;27.88;19.13;;;27.20;83.90;;;;;;5046358;28;20102;-59
2022/08/25 09:54:13;;;;;;;36.38;21.10;;;27.40;81.70;;;;;;5049156;28;20032;-59
2022/08/25 09:56:54;;;;;;;37.25;22.35;;;27.60;82.10;;;;;;5038915;28;20040;-59
2022/08/25 09:59:26;;;;;;;44.97;24.08;;;28.10;83.80;;;;;;5049644;28;20099;-59
2022/08/25 10:01:55;;;;;;;33.90;21.33;;;28.20;84.90;;;;;;5047081;28;20029;-59
2022/08/25 10:04:33;;;;;;;38.23;22.90;;;28.30;80.60;;;;;;5049445;28;20098;-59
2022/08/25 10:07:02;;;;;;;32.83;21.33;;;27.90;79.30;;;;;;5050342;28;20141;-59
2022/08/25 10:09:33;;;;;;;38.55;21.77;;;28.10;84.50;;;;;;5049821;28;20860;-59
2022/08/25 10:12:03;;;;;;;36.90;22.17;;;27.70;80.10;;;;;;5057127;28;20032;-59
2022/08/25 10:14:39;;;;;;;;;;;27.50;81.60;;;;;;5060328;28;20517;-59
2022/08/25 10:17:29;;;;;;;30.15;21.52;;;27.80;82.10;;;;;;5043032;28;19974;-59
2022/08/25 10:20:19;;;;;;;33.72;21.85;;;28.30;84.30;;;;;;5035483;28;20021;-59
2022/08/25 10:22:46;;;;;;;40.10;22.73;;;28.60;77.10;;;;;;5036306;28;20114;-59
2022/08/25 10:25:16;;;;;;;36.90;23.77;;;28.90;75.80;;;;;;5045115;28;20035;-59
2022/08/25 10:28:06;;;;;;;43.08;24.98;;;28.60;77.00;;;;;;5047252;28;20463;-59
2022/08/25 10:30:41;;;;;;;41.88;25.77;;;28.70;76.40;;;;;;5042985;28;20028;-59
2022/08/25 10:33:19;;;;;;;40.25;24.98;;;28.40;76.00;;;;;;5041774;28;20047;-59
2022/08/25 10:36:16;;;;;;;40.20;25.05;;;28.90;75.20;;;;;;5038251;28;20032;-59
2022/08/25 10:38:54;;;;;;;37.85;24.63;;;29.60;76.20;;;;;;5027704;28;20039;-59
2022/08/25 10:41:42;;;;;;;39.08;25.63;;;29.90;70.50;;;;;;5040781;28;20559;-59
2022/08/25 10:47:29;;;;;;;38.92;25.48;;;29.70;71.80;;;;;;5037435;28;20285;-59
2022/08/25 10:50:04;;;;;;;33.28;24.30;;;30.00;72.60;;;;;;5047294;28;20060;-59
2022/08/25 10:52:57;;;;;;;37.25;25.25;;;30.50;71.30;;;;;;5040733;28;20043;-59
2022/08/25 10:55:50;;;;;;;32.80;22.25;;;30.40;67.70;;;;;;5033514;28;20028;-59
2022/08/25 10:58:32;;;;;;;37.00;24.85;;;30.00;67.50;;;;;;5020657;28;20136;-59
2022/08/25 11:01:05;;;;;;;40.42;24.70;;;30.20;69.80;;;;;;5025959;28;20100;-59
2022/08/25 11:03:51;;;;;;;35.08;23.67;;;29.50;69.40;;;;;;5044566;28;20036;-59
2022/08/25 11:06:23;;;;;;;43.25;25.83;;;30.00;70.00;;;;;;5052232;28;20438;-59
2022/08/25 11:08:53;;;;;;;46.47;26.45;;;30.60;72.10;;;;;;5053245;28;20020;-59
2022/08/25 11:11:45;;;;;;;35.08;24.30;;;31.00;68.40;;;;;;5045577;28;20025;-59
2022/08/25 11:14:21;;;;;;;46.03;27.40;;;31.00;66.30;;;;;;5026731;28;20048;-59
2022/08/25 11:17:00;;;;;;;43.95;25.83;;;30.90;67.40;;;;;;5064736;28;20462;-59
2022/08/25 11:19:32;;;;;;;46.60;28.63;;;31.00;66.90;;;;;;5043041;28;20024;-59
2022/08/25 11:22:13;;;;;;;49.75;27.27;;;30.90;68.80;;;;;;5059151;28;20020;-59
2022/08/25 11:25:14;;;;;;;42.08;25.52;;;30.80;65.00;;;;;;5052524;28;20056;-59
2022/08/25 11:27:46;;;;;;;43.67;26.60;;;31.20;68.20;;;;;;5025565;28;20079;-59
2022/08/25 11:30:16;;;;;;;42.28;24.83;;;31.20;66.70;;;;;;5044502;28;20811;-59
2022/08/25 11:32:49;;;;;;;46.38;26.08;;;31.60;66.00;;;;;;5045781;28;20549;-59
2022/08/25 11:35:28;;;;;;;40.65;24.52;;;30.20;63.30;;;;;;5050900;28;20129;-59
2022/08/25 11:38:34;;;;;;;42.80;26.60;;;30.40;66.60;;;;;;5045856;28;20056;-59
2022/08/25 11:41:48;;;;;;;42.55;25.60;;;30.50;68.40;;;;;;5051284;28;20024;-59
2022/08/25 11:44:41;;;;;;;39.53;24.83;;;30.80;65.00;;;;;;5037467;28;20036;-59
2022/08/25 11:47:14;;;;;;;39.70;25.35;;;30.80;66.50;;;;;;5051002;28;20094;-59
2022/08/25 11:49:43;;;;;;;35.13;22.23;;;30.70;63.40;;;;;;5040785;28;20053;-59
2022/08/25 11:52:34;;;;;;;39.95;24.40;;;31.10;63.50;;;;;;5069784;28;20043;-59
2022/08/25 11:55:19;;;;;;;38.88;23.83;;;31.60;64.10;;;;;;5069552;28;20102;-59
2022/08/25 11:57:47;;;;;;;36.03;23.15;;;32.10;62.90;;;;;;5069360;28;20031;-59
2022/08/25 12:00:42;;;;;;;38.72;25.17;;;32.30;63.20;;;;;;5050052;28;20036;-59
2022/08/25 12:03:33;;;;;;;33.58;21.58;;;33.00;62.00;;;;;;5054405;28;20028;-59
2022/08/25 12:06:27;;;;;;;39.08;23.85;;;32.90;57.30;;;;;;5051443;28;20447;-59
2022/08/25 12:09:00;;;;;;;32.15;20.42;;;33.00;59.90;;;;;;5049995;28;20024;-59
2022/08/25 12:11:41;;;;;;;36.97;23.70;;;33.50;56.40;;;;;;5044309;28;20471;-59
2022/08/25 12:14:14;;;;;;;34.22;21.30;;;33.50;57.00;;;;;;5032510;28;20946;-59
2022/08/25 12:17:16;;;;;;;40.42;24.05;;;33.10;56.20;;;;;;5029514;28;20028;-59
2022/08/25 12:19:41;;;;;;;35.88;23.52;;;33.40;59.00;;;;;;5029328;28;20025;-59
2022/08/25 12:22:07;;;;;;;30.33;21.20;;;33.60;58.40;;;;;;5031045;28;20033;-60
2022/08/25 12:24:46;;;;;;;39.03;23.02;;;33.40;56.20;;;;;;5060558;28;20032;-60
2022/08/25 12:27:22;;;;;;;42.88;22.73;;;32.70;56.40;;;;;;5067018;28;20542;-60
2022/08/25 12:30:09;;;;;;;40.78;22.90;;;32.10;59.10;;;;;;5049414;28;20036;-60
2022/08/25 12:33:09;;;;;;;29.58;19.40;;;32.40;57.70;;;;;;5044930;28;20100;-60
2022/08/25 12:36:17;;;;;;;29.00;19.48;;;32.10;56.20;;;;;;5045330;28;20024;-60
2022/08/25 12:38:44;;;;;;;35.75;20.92;;;32.00;57.80;;;;;;5030082;28;20032;-60
2022/08/25 12:41:14;;;;;;;40.88;25.40;;;31.90;58.90;;;;;;5048325;28;20051;-60
2022/08/25 12:43:44;;;;;;;43.58;25.20;;;31.80;58.70;;;;;;5046709;28;20032;-60
2022/08/25 12:46:18;;;;;;;39.80;23.77;;;32.00;60.30;;;;;;5048301;28;20474;-60
2022/08/25 12:49:02;;;;;;;44.58;23.83;;;32.20;60.30;;;;;;5047569;28;20049;-60
2022/08/25 12:52:11;;;;;;;37.38;22.25;;;32.10;59.70;;;;;;5047227;28;20029;-60
2022/08/25 12:55:09;;;;;;;30.48;19.35;;;32.40;60.20;;;;;;5005210;28;20049;-60
2022/08/25 12:57:38;;;;;;;37.70;22.50;;;31.50;56.80;;;;;;5008275;28;21104;-60
2022/08/25 13:00:21;;;;;;;39.60;23.90;;;31.50;58.20;;;;;;5020634;28;20223;-60
2022/08/25 13:03:17;;;;;;;40.60;23.40;;;31.60;60.60;;;;;;5007923;28;20937;-60